Terminal Aerodrome Forecast
Issued by NWS Amarillo, TX

Home | Current Version | Previous Version | Text Only | Print | Product List | Glossary On
Versions: 1 2 3 4 5 6 7 8 9 10 11 12
000
FTUS44 KAMA 150523
TAFAMA
TAF
KAMA 150523Z 1506/1606 33008KT P6SM SCT060
     FM151200 26008KT P6SM SKC
     FM151500 23013KT P6SM SKC=

USA.gov is the U.S. government's official web portal to all federal, state and local government web resources and services.